עמוד ראשי
METAR-TAF:

METAR-TAF

שדות תעופה :

נאוקן, ארגנטינה

קו רוחב: 38-57S, קו אורך: 068-08W, גובה: 270מטר

תצפית מזג אוויר נוכחית

הדו"ח נערך לפני 49דקות, בשעה 21:00 UTC
רוח 4קשר מכיוון מערב/דרום-מערב
טמפרטורת 15 צלסיוס
לחות 51%
לחץ 1011 hPa
ראות 10 קילומטר או יותר
ללא עננים שבסיסם נמוך מ 5000 רגל או קומולונימבוס

METAR: SAZN 142100Z 24004KT CAVOK 15/05 Q1011

זמן: 18:49 (21:49 UTC)

תחזית

הדו"ח נערך לפני 4 שעות ו 49דקות, בשעה 17:00 UTC
תחזית בתוקף מ 14 ב 18 UTC עד 15 ב 18 UTC
רוח 10קשר מכיוון מערב
ראות 10 קילומטר או יותר
ללא עננים שבסיסם נמוך מ 5000 רגל או קומולונימבוס
זמנית מ -
14 ב 18 UTC עד 14 ב 21 UTC
רוח 10קשר מכיוון מערב עם משבים עד 25קשר

TAF: SAZN 141700Z 1418/1518 27010KT CAVOK TX17/1418Z TN06/1511Z TEMPO 1418/1421 27010G25KT

תצפיות ותחזיות מזג אוויר לגבי יותר מ- 4,000 שדות תעופה ברחבי העולם. דוחות METAR ו- TAF.

התחנות הזמינות מסומנות בנקודות צהובות ואדומות על גבי המפה.

העבר את העכבר לנקודה הצבעונית על מנת לראות את שם התחנה.

לאחר מכן, לחץ כדי לראות את תוכן ואת תחזיות מזג האוויר.

כדי לשנות את המפה: לחץ על הכפתורים הירוקים עם הפלוס השחור כדי להתקרב; על הכפתור הירוק עם המקף כדי להתרחק; או בחיצים הירוקים למפות סמוכות.


METAR-TAF: